createdAt,value
2022-08-16T00:02:30.516Z,17.73
2022-08-16T00:04:59.868Z,17.73
2022-08-16T00:07:29.158Z,20.48
2022-08-16T00:09:57.495Z,17.33
2022-08-16T00:12:26.725Z,16.33
2022-08-16T00:14:56.909Z,18.48
2022-08-16T00:17:25.263Z,20.17
2022-08-16T00:19:54.929Z,16.52
2022-08-16T00:22:25.110Z,13.45
2022-08-16T00:24:55.546Z,12.95
2022-08-16T00:27:23.528Z,14.48
2022-08-16T00:30:00.590Z,13.50
2022-08-16T00:32:35.270Z,10.52
2022-08-16T00:35:01.903Z,12.15
2022-08-16T00:37:57.296Z,11.18
2022-08-16T00:40:34.307Z,12.77
2022-08-16T00:43:04.372Z,13.32
2022-08-16T00:45:36.240Z,12.27
2022-08-16T00:48:30.610Z,10.50
2022-08-16T00:50:56.726Z,9.25
2022-08-16T00:53:23.575Z,9.52
2022-08-16T00:55:54.958Z,8.73
2022-08-16T00:58:34.351Z,7.95
2022-08-16T01:01:02.149Z,8.75
2022-08-16T01:03:35.033Z,7.32
2022-08-16T01:06:39.679Z,8.50
2022-08-16T01:08:52.831Z,6.78
2022-08-16T01:11:25.060Z,7.03
2022-08-16T01:13:59.214Z,7.72
2022-08-16T01:16:28.839Z,7.93
2022-08-16T01:19:17.619Z,7.97
2022-08-16T01:21:54.319Z,8.38
2022-08-16T01:24:53.992Z,7.55
2022-08-16T01:27:31.607Z,12.13
2022-08-16T01:30:20.292Z,8.00
2022-08-16T01:33:01.872Z,7.10
2022-08-16T01:35:36.250Z,9.98
2022-08-16T01:38:34.351Z,10.03
2022-08-16T01:41:13.405Z,7.78
2022-08-16T01:43:47.822Z,8.65
2022-08-16T01:46:39.632Z,7.85
2022-08-16T01:49:14.363Z,11.27
2022-08-16T01:51:44.585Z,7.15
2022-08-16T01:54:13.475Z,6.80
2022-08-16T01:56:43.144Z,8.45
2022-08-16T01:59:15.426Z,10.15
2022-08-16T02:01:43.094Z,8.90
2022-08-16T02:04:11.177Z,8.90
2022-08-16T02:06:40.510Z,6.85
2022-08-16T02:09:14.769Z,7.30
2022-08-16T02:11:53.206Z,7.18
2022-08-16T02:14:26.625Z,7.88
2022-08-16T02:16:56.706Z,8.20
2022-08-16T02:19:59.859Z,8.57
2022-08-16T02:22:35.076Z,7.82
2022-08-16T02:25:10.651Z,10.00
2022-08-16T02:27:40.945Z,7.00
2022-08-16T02:30:37.014Z,14.65
2022-08-16T02:33:01.083Z,10.10
2022-08-16T02:35:29.679Z,13.90
2022-08-16T02:37:56.454Z,6.50
2022-08-16T02:40:28.758Z,7.38
2022-08-16T02:42:56.355Z,6.70
2022-08-16T02:45:27.813Z,7.82
2022-08-16T02:48:00.183Z,6.53
2022-08-16T02:50:55.093Z,8.23
2022-08-16T02:53:18.252Z,7.70
2022-08-16T02:55:50.409Z,8.70
2022-08-16T02:58:17.337Z,9.00
2022-08-16T03:00:45.563Z,7.18
2022-08-16T03:03:17.923Z,8.05
2022-08-16T03:05:50.008Z,6.53
2022-08-16T03:08:50.873Z,7.57
2022-08-16T03:11:16.931Z,10.27
2022-08-16T03:13:56.472Z,5.43
2022-08-16T03:16:38.182Z,8.80
2022-08-16T03:19:07.380Z,7.32
2022-08-16T03:21:37.755Z,20.67
2022-08-16T03:24:28.454Z,24.38
2022-08-16T03:26:57.878Z,12.82
2022-08-16T03:29:29.869Z,12.50
2022-08-16T03:31:58.963Z,12.25
2022-08-16T03:34:26.477Z,5.97
2022-08-16T03:36:53.239Z,5.60
2022-08-16T03:39:20.329Z,7.95
2022-08-16T03:41:50.313Z,7.55
2022-08-16T03:44:44.207Z,9.25
2022-08-16T03:47:04.754Z,8.80
2022-08-16T03:49:37.408Z,5.95
2022-08-16T03:52:04.582Z,11.02
2022-08-16T03:54:31.202Z,14.70
2022-08-16T03:56:59.012Z,6.47
2022-08-16T03:59:29.284Z,4.68
2022-08-16T04:01:56.617Z,16.40
2022-08-16T04:04:32.472Z,21.65
2022-08-16T04:07:02.879Z,19.27
2022-08-16T04:09:35.212Z,9.07
2022-08-16T04:12:11.379Z,7.90
2022-08-16T04:14:51.685Z,8.00
2022-08-16T04:17:18.370Z,7.32
2022-08-16T04:19:46.810Z,9.43
2022-08-16T04:22:14.029Z,9.70
2022-08-16T04:24:53.262Z,8.00
2022-08-16T04:27:21.687Z,7.10
2022-08-16T04:29:52.270Z,9.30
2022-08-16T04:32:19.573Z,7.00
2022-08-16T04:34:46.830Z,8.98
2022-08-16T04:37:14.510Z,5.80
2022-08-16T04:39:47.242Z,7.60
2022-08-16T04:42:26.462Z,5.80
2022-08-16T04:44:57.657Z,9.75
2022-08-16T04:47:33.516Z,9.02
2022-08-16T04:50:06.580Z,11.20
2022-08-16T04:52:35.978Z,9.43
2022-08-16T04:55:09.559Z,8.80
2022-08-16T04:57:38.418Z,10.50
2022-08-16T05:00:31.751Z,6.65
2022-08-16T05:02:58.882Z,8.40
2022-08-16T05:05:26.049Z,9.63
2022-08-16T05:08:00.373Z,10.00
2022-08-16T05:10:29.469Z,12.45
2022-08-16T05:12:57.863Z,13.43
2022-08-16T05:15:25.253Z,10.93
2022-08-16T05:17:58.488Z,14.60
2022-08-16T05:20:38.925Z,12.05
2022-08-16T05:23:15.073Z,9.88
2022-08-16T05:25:48.331Z,12.68
2022-08-16T05:28:16.470Z,10.68
2022-08-16T05:30:43.366Z,13.35
2022-08-16T05:33:16.685Z,11.60
2022-08-16T05:35:55.585Z,8.93
2022-08-16T05:38:33.095Z,17.40
2022-08-16T05:41:06.995Z,11.77
2022-08-16T05:43:43.309Z,10.80
2022-08-16T05:46:30.108Z,21.02
2022-08-16T05:49:05.862Z,10.45
2022-08-16T05:51:38.211Z,11.18
2022-08-16T05:54:07.999Z,9.95
2022-08-16T05:56:37.697Z,12.40
2022-08-16T05:59:06.505Z,10.30
2022-08-16T06:01:38.496Z,11.93
2022-08-16T06:04:13.743Z,13.68
2022-08-16T06:06:56.575Z,11.15
2022-08-16T06:09:25.236Z,10.48
2022-08-16T06:11:52.369Z,11.07
2022-08-16T06:14:19.566Z,12.43
2022-08-16T06:16:50.834Z,11.48
2022-08-16T06:19:18.113Z,12.98
2022-08-16T06:21:45.349Z,15.77
2022-08-16T06:24:53.294Z,18.55
2022-08-16T06:26:58.742Z,20.58
2022-08-16T06:29:25.308Z,19.20
2022-08-16T06:31:53.459Z,20.40
2022-08-16T06:34:55.983Z,23.55
2022-08-16T06:37:07.541Z,25.00
2022-08-16T06:39:34.794Z,28.23
2022-08-16T06:42:18.338Z,35.08
2022-08-16T06:44:45.744Z,25.08
2022-08-16T06:47:17.048Z,30.48
2022-08-16T06:49:47.900Z,20.98
2022-08-16T06:53:00.697Z,33.15
2022-08-16T06:55:12.791Z,26.50
2022-08-16T06:57:40.734Z,26.40
2022-08-16T07:00:24.210Z,20.98
2022-08-16T07:02:53.808Z,28.65
2022-08-16T07:05:20.956Z,26.75
2022-08-16T07:07:54.164Z,30.92
2022-08-16T07:10:26.670Z,43.85
2022-08-16T07:13:04.658Z,41.28
2022-08-16T07:15:50.160Z,40.80
2022-08-16T07:18:21.397Z,49.92
2022-08-16T07:20:53.573Z,59.75
2022-08-16T07:23:21.616Z,69.05
2022-08-16T07:26:08.543Z,72.38
2022-08-16T07:28:37.603Z,79.25
2022-08-16T07:31:05.102Z,97.13
2022-08-16T07:33:51.933Z,97.18
2022-08-16T07:36:22.509Z,76.93
2022-08-16T07:38:49.923Z,82.30
2022-08-16T07:41:17.453Z,83.93
2022-08-16T07:43:46.188Z,83.15
2022-08-16T07:46:38.470Z,105.40
2022-08-16T07:49:03.090Z,95.43
2022-08-16T07:51:37.125Z,82.55
2022-08-16T07:54:10.015Z,79.93
2022-08-16T07:56:37.524Z,87.10
2022-08-16T07:59:05.370Z,79.97
2022-08-16T08:01:32.994Z,103.57
2022-08-16T08:04:02.865Z,107.63
2022-08-16T08:06:32.419Z,103.70
2022-08-16T08:09:00.322Z,107.32
2022-08-16T08:11:28.840Z,116.75
2022-08-16T08:14:03.209Z,110.13
2022-08-16T08:16:31.617Z,120.47
2022-08-16T08:19:02.434Z,150.70
2022-08-16T08:22:01.345Z,141.18
2022-08-16T08:24:18.758Z,154.52
2022-08-16T08:26:50.061Z,141.65
2022-08-16T08:29:22.799Z,149.25
2022-08-16T08:31:52.928Z,150.73
2022-08-16T08:34:22.121Z,164.98
2022-08-16T08:36:50.101Z,179.05
2022-08-16T08:39:22.121Z,179.48
2022-08-16T08:41:49.499Z,190.73
2022-08-16T08:44:30.110Z,217.65
2022-08-16T08:47:05.608Z,189.02
2022-08-16T08:49:50.386Z,186.68
2022-08-16T08:52:34.603Z,205.15
2022-08-16T08:55:11.458Z,273.75
2022-08-16T08:57:42.028Z,183.07
2022-08-16T09:00:13.157Z,213.43
2022-08-16T09:02:42.999Z,180.95
2022-08-16T09:05:15.241Z,214.35
2022-08-16T09:07:54.781Z,163.40
2022-08-16T09:10:29.433Z,143.27
2022-08-16T09:12:56.884Z,141.27
2022-08-16T09:15:24.036Z,142.25
2022-08-16T09:17:54.671Z,142.80
2022-08-16T09:20:23.775Z,150.60
2022-08-16T09:22:52.996Z,155.60
2022-08-16T09:25:26.234Z,158.55
2022-08-16T09:28:02.794Z,163.30
2022-08-16T09:30:43.846Z,182.35
2022-08-16T09:33:13.624Z,186.77
2022-08-16T09:35:42.456Z,225.98
2022-08-16T09:38:12.310Z,205.75
2022-08-16T09:40:42.497Z,210.55
2022-08-16T09:43:37.647Z,249.50
2022-08-16T09:46:44.848Z,246.18
2022-08-16T09:48:56.395Z,255.63
2022-08-16T09:51:26.257Z,291.25
2022-08-16T09:53:57.701Z,288.00
2022-08-16T09:56:31.691Z,215.43
2022-08-16T09:59:05.270Z,266.60
2022-08-16T10:01:36.684Z,201.25
2022-08-16T10:04:09.806Z,210.07
2022-08-16T10:06:54.244Z,166.55
2022-08-16T10:09:25.497Z,170.83
2022-08-16T10:12:30.486Z,166.38
2022-08-16T10:14:57.118Z,197.18
2022-08-16T10:17:24.720Z,179.73
2022-08-16T10:19:53.034Z,178.77
2022-08-16T10:22:22.952Z,208.93
2022-08-16T10:24:56.019Z,192.02
2022-08-16T10:27:28.957Z,180.00
2022-08-16T10:30:25.761Z,192.13
2022-08-16T10:32:55.043Z,172.68
2022-08-16T10:35:21.798Z,167.18
2022-08-16T10:37:50.178Z,176.50
2022-08-16T10:40:29.344Z,140.20
2022-08-16T10:42:59.943Z,165.35
2022-08-16T10:45:29.289Z,157.05
2022-08-16T10:48:27.290Z,185.93
2022-08-16T10:50:57.843Z,157.00
2022-08-16T10:53:32.959Z,116.38
2022-08-16T10:56:02.726Z,93.13
2022-08-16T10:58:34.042Z,63.15
2022-08-16T11:01:25.061Z,56.42
2022-08-16T11:03:54.445Z,54.90
2022-08-16T11:06:26.902Z,53.97
2022-08-16T11:14:29.430Z,61.33
2022-08-16T11:17:09.562Z,113.93
2022-08-16T11:20:00.627Z,155.95
2022-08-16T11:22:47.073Z,122.35
2022-08-16T11:25:57.904Z,154.27
2022-08-16T11:28:03.285Z,79.15
2022-08-16T11:30:39.172Z,108.78
2022-08-16T11:33:07.324Z,313.80
2022-08-16T11:38:46.621Z,409.13
2022-08-16T11:41:09.810Z,586.20
2022-08-16T11:43:38.879Z,603.85
2022-08-16T11:46:43.764Z,512.15
2022-08-16T11:48:57.119Z,622.05
2022-08-16T11:51:23.675Z,604.33
2022-08-16T11:53:50.263Z,542.80
2022-08-16T11:56:19.761Z,539.25
2022-08-16T11:58:56.979Z,509.75
2022-08-16T12:01:29.574Z,533.78
2022-08-16T12:04:11.139Z,496.75
2022-08-16T12:06:40.417Z,379.20
2022-08-16T12:09:08.065Z,278.77
2022-08-16T12:11:36.760Z,257.88
2022-08-16T12:14:07.294Z,263.23
2022-08-16T12:16:35.610Z,251.82
2022-08-16T12:19:10.424Z,266.70
2022-08-16T12:21:58.281Z,273.38
2022-08-16T12:24:26.291Z,277.23
2022-08-16T12:26:54.154Z,233.52
2022-08-16T12:29:21.800Z,151.60
2022-08-16T12:32:01.186Z,160.15
2022-08-16T12:34:37.538Z,156.57
2022-08-16T12:37:15.502Z,201.40
2022-08-16T12:39:50.785Z,193.55
2022-08-16T12:42:19.434Z,272.45
2022-08-16T12:44:47.250Z,206.65
2022-08-16T12:47:32.477Z,240.45
2022-08-16T12:49:59.360Z,307.50
2022-08-16T12:52:32.628Z,325.73
2022-08-16T12:55:01.985Z,383.58
2022-08-16T12:57:36.219Z,315.60
2022-08-16T13:00:26.768Z,307.10
2022-08-16T13:03:01.986Z,424.50
2022-08-16T13:05:29.189Z,382.38
2022-08-16T13:07:58.346Z,401.45
2022-08-16T13:10:37.270Z,447.05
2022-08-16T13:13:05.949Z,443.52
2022-08-16T13:15:36.153Z,496.50
2022-08-16T13:18:24.000Z,537.38
2022-08-16T13:20:54.170Z,389.42
2022-08-16T13:23:21.480Z,358.30
2022-08-16T13:25:50.042Z,378.38
2022-08-16T13:28:18.755Z,385.38
2022-08-16T13:30:50.522Z,438.00
2022-08-16T13:33:30.191Z,440.17
2022-08-16T13:36:00.718Z,336.75
2022-08-16T13:38:31.192Z,216.48
2022-08-16T13:40:59.817Z,233.77
2022-08-16T13:43:28.775Z,199.45
2022-08-16T13:45:56.567Z,123.93
2022-08-16T13:48:26.458Z,103.72
2022-08-16T13:51:10.048Z,112.90
2022-08-16T13:53:44.129Z,66.78
2022-08-16T13:56:10.806Z,51.22
2022-08-16T13:58:54.443Z,54.50
2022-08-16T14:01:22.362Z,46.35
2022-08-16T14:03:49.241Z,27.73
2022-08-16T14:06:16.078Z,21.40
2022-08-16T14:08:58.934Z,23.58
2022-08-16T14:11:32.535Z,27.35
2022-08-16T14:13:59.417Z,27.33
2022-08-16T14:16:33.708Z,24.13
2022-08-16T14:19:00.963Z,20.77
2022-08-16T14:21:35.500Z,22.55
2022-08-16T14:24:07.906Z,19.70
2022-08-16T14:26:49.701Z,20.85
2022-08-16T14:31:53.677Z,20.60
2022-08-16T14:36:47.411Z,19.50
2022-08-16T14:39:18.719Z,19.77
2022-08-16T14:41:45.261Z,21.65
2022-08-16T14:44:12.170Z,20.38
2022-08-16T14:46:40.334Z,20.30
2022-08-16T14:49:09.733Z,19.40
2022-08-16T14:51:36.652Z,19.60
2022-08-16T14:54:05.518Z,18.35
2022-08-16T14:56:43.129Z,19.00
2022-08-16T14:59:13.551Z,20.20
2022-08-16T15:01:57.477Z,20.55
2022-08-16T15:04:39.608Z,21.13
2022-08-16T15:07:11.035Z,20.30
2022-08-16T15:09:44.126Z,21.50
2022-08-16T15:12:32.721Z,23.50
2022-08-16T15:15:01.646Z,22.38
2022-08-16T15:17:33.971Z,23.98
2022-08-16T15:20:09.216Z,22.73
2022-08-16T15:22:42.900Z,23.30
2022-08-16T15:25:21.819Z,23.33
2022-08-16T15:27:55.448Z,25.90
2022-08-16T15:30:58.089Z,26.42
2022-08-16T15:33:15.236Z,24.52
2022-08-16T15:35:43.479Z,23.85
2022-08-16T15:38:10.783Z,22.45
2022-08-16T15:40:59.015Z,23.90
2022-08-16T15:43:33.935Z,21.85
2022-08-16T15:46:35.502Z,22.70
2022-08-16T15:49:13.314Z,23.17
2022-08-16T15:51:41.291Z,21.13
2022-08-16T15:54:16.235Z,20.20
2022-08-16T15:57:00.217Z,21.10
2022-08-16T15:59:47.939Z,22.08
2022-08-16T16:02:27.218Z,22.02
2022-08-16T16:04:54.526Z,23.05
2022-08-16T16:07:22.202Z,21.98
2022-08-16T16:09:48.931Z,21.20
2022-08-16T16:12:50.238Z,23.15
2022-08-16T16:15:06.520Z,23.48
2022-08-16T16:17:35.494Z,21.02
2022-08-16T16:20:13.768Z,22.33
2022-08-16T16:22:43.474Z,20.70
2022-08-16T16:25:12.538Z,22.30
2022-08-16T16:27:39.462Z,20.65
2022-08-16T16:30:11.268Z,19.20
2022-08-16T16:32:58.255Z,20.15
2022-08-16T16:35:32.768Z,21.08
2022-08-16T16:38:00.148Z,22.42
2022-08-16T16:40:32.217Z,26.77
2022-08-16T16:43:00.057Z,34.45
2022-08-16T16:45:33.490Z,42.35
2022-08-16T16:48:11.702Z,54.20
2022-08-16T16:50:44.490Z,65.65
2022-08-16T16:53:16.732Z,77.53
2022-08-16T16:55:47.719Z,90.07
2022-08-16T16:58:43.411Z,88.15
2022-08-16T17:01:10.819Z,86.32
2022-08-16T17:03:38.630Z,81.60
2022-08-16T17:06:09.347Z,83.57
2022-08-16T17:08:40.943Z,87.05
2022-08-16T17:11:09.739Z,101.38
2022-08-16T17:13:37.019Z,102.93
2022-08-16T17:16:04.978Z,106.38
2022-08-16T17:19:14.570Z,90.30
2022-08-16T17:21:18.677Z,96.00
2022-08-16T17:23:58.922Z,101.85
2022-08-16T17:26:33.965Z,99.05
2022-08-16T17:29:02.117Z,104.50
2022-08-16T17:31:40.632Z,116.15
2022-08-16T17:34:30.764Z,112.43
2022-08-16T17:36:54.730Z,116.88
2022-08-16T17:39:21.570Z,117.13
2022-08-16T17:41:51.110Z,111.85
2022-08-16T17:44:19.310Z,120.72
2022-08-16T17:46:50.939Z,119.97
2022-08-16T17:49:18.575Z,124.50
2022-08-16T17:51:45.080Z,137.80
2022-08-16T17:54:18.320Z,134.48
2022-08-16T17:56:56.842Z,156.50
2022-08-16T17:59:24.232Z,161.25
2022-08-16T18:01:50.846Z,201.90
2022-08-16T18:04:48.647Z,226.73
2022-08-16T18:07:05.299Z,253.55
2022-08-16T18:09:31.894Z,201.85
2022-08-16T18:11:58.673Z,267.35
2022-08-16T18:14:52.191Z,310.15
2022-08-16T18:17:12.967Z,376.30
2022-08-16T18:19:39.559Z,371.83
2022-08-16T18:22:18.227Z,435.75
2022-08-16T18:24:49.579Z,467.90
2022-08-16T18:27:26.589Z,426.40
2022-08-16T18:29:54.108Z,449.83
2022-08-16T18:32:24.912Z,434.70
2022-08-16T18:34:54.512Z,438.27
2022-08-16T18:37:24.586Z,503.80
2022-08-16T18:39:51.156Z,552.10
2022-08-16T18:42:17.948Z,556.35
2022-08-16T18:44:44.799Z,552.88
2022-08-16T18:47:11.419Z,517.22
2022-08-16T18:49:38.336Z,473.05
2022-08-16T18:52:05.589Z,435.10
2022-08-16T18:54:33.388Z,465.08
2022-08-16T18:57:03.395Z,575.00
2022-08-16T18:59:33.210Z,557.35
2022-08-16T19:02:05.145Z,600.08
2022-08-16T19:04:48.045Z,630.25
2022-08-16T19:07:30.527Z,479.77
2022-08-16T19:09:59.584Z,585.35
2022-08-16T19:12:37.781Z,586.70
2022-08-16T19:15:13.280Z,616.60
2022-08-16T19:17:40.203Z,650.08
2022-08-16T19:20:10.781Z,647.72
2022-08-16T19:23:01.475Z,621.60
2022-08-16T19:25:46.409Z,605.63
2022-08-16T19:28:45.902Z,535.25
2022-08-16T19:31:00.090Z,540.42
2022-08-16T19:33:26.640Z,480.00
2022-08-16T19:35:53.224Z,512.47
2022-08-16T19:38:19.944Z,454.38
2022-08-16T19:40:46.765Z,439.80
2022-08-16T19:43:13.346Z,419.92
2022-08-16T19:45:45.358Z,434.88
2022-08-16T19:48:12.764Z,418.95
2022-08-16T19:50:39.835Z,419.50
2022-08-16T19:53:13.116Z,363.27
2022-08-16T19:55:45.800Z,380.50
2022-08-16T19:58:15.456Z,300.77
2022-08-16T20:00:43.324Z,257.50
2022-08-16T20:03:15.231Z,251.07
2022-08-16T20:05:43.598Z,234.50
2022-08-16T20:08:11.353Z,209.10
2022-08-16T20:10:39.503Z,195.85
2022-08-16T20:13:20.982Z,181.75
2022-08-16T20:15:48.842Z,179.25
2022-08-16T20:18:21.311Z,164.88
2022-08-16T20:20:52.874Z,152.93
2022-08-16T20:23:24.788Z,158.00
2022-08-16T20:25:55.847Z,149.20
2022-08-16T20:28:51.822Z,137.23
2022-08-16T20:31:11.471Z,141.00
2022-08-16T20:33:38.112Z,140.02
2022-08-16T20:36:04.808Z,144.45
2022-08-16T20:38:31.477Z,151.18
2022-08-16T20:40:58.015Z,159.80
2022-08-16T20:43:24.561Z,152.95
2022-08-16T20:45:51.084Z,154.32
2022-08-16T20:48:17.619Z,158.65
2022-08-16T20:50:45.059Z,156.45
2022-08-16T20:53:11.940Z,160.68
2022-08-16T20:55:40.097Z,161.90
2022-08-16T20:58:06.659Z,160.07
2022-08-16T21:00:33.653Z,151.73
2022-08-16T21:03:01.560Z,144.48
2022-08-16T21:05:31.152Z,142.20
2022-08-16T21:07:58.598Z,137.82
2022-08-16T21:10:25.179Z,132.00
2022-08-16T21:12:57.910Z,127.43
2022-08-16T21:15:26.735Z,108.60
2022-08-16T21:17:53.786Z,116.85
2022-08-16T21:20:22.699Z,104.95
2022-08-16T21:22:55.276Z,100.93
2022-08-16T21:25:23.497Z,119.33
2022-08-16T21:28:39.523Z,116.97
2022-08-16T21:30:39.471Z,95.45
2022-08-16T21:33:12.360Z,101.97
2022-08-16T21:35:41.007Z,99.35
2022-08-16T21:38:28.665Z,101.25
2022-08-16T21:40:54.267Z,102.82
2022-08-16T21:43:22.902Z,95.63
2022-08-16T21:45:54.855Z,87.70
2022-08-16T21:48:32.645Z,71.22
2022-08-16T21:51:06.794Z,94.45
2022-08-16T21:53:33.771Z,85.10
2022-08-16T21:56:00.914Z,83.43
2022-08-16T21:58:28.593Z,81.85
2022-08-16T22:00:55.908Z,61.22
2022-08-16T22:03:23.502Z,60.53
2022-08-16T22:06:12.154Z,59.75
2022-08-16T22:08:39.509Z,56.13
2022-08-16T22:11:15.427Z,43.80
2022-08-16T22:13:41.993Z,41.38
2022-08-16T22:16:15.815Z,35.67
2022-08-16T22:18:42.314Z,33.45
2022-08-16T22:21:18.873Z,31.10
2022-08-16T22:23:45.432Z,33.38
2022-08-16T22:26:29.943Z,29.17
2022-08-16T22:29:01.926Z,28.27
2022-08-16T22:31:28.822Z,31.02
2022-08-16T22:33:58.609Z,30.80
2022-08-16T22:36:28.602Z,31.58
2022-08-16T22:39:00.625Z,31.27
2022-08-16T22:41:28.646Z,33.72
2022-08-16T22:43:55.663Z,34.53
2022-08-16T22:46:22.549Z,34.03
2022-08-16T22:48:52.210Z,35.05
2022-08-16T22:51:20.844Z,33.08
2022-08-16T22:53:47.640Z,34.13
2022-08-16T22:56:15.705Z,31.08
2022-08-16T22:58:42.442Z,27.95
2022-08-16T23:01:10.455Z,23.58
2022-08-16T23:03:37.774Z,19.55
2022-08-16T23:06:05.353Z,14.40
2022-08-16T23:08:39.859Z,14.63
2022-08-16T23:11:13.448Z,11.43
2022-08-16T23:13:50.710Z,10.70
2022-08-16T23:16:24.862Z,10.90
2022-08-16T23:18:59.503Z,8.77
2022-08-16T23:21:26.499Z,8.35
2022-08-16T23:23:53.981Z,6.90
2022-08-16T23:26:45.206Z,8.07
2022-08-16T23:29:07.600Z,7.78
2022-08-16T23:31:49.166Z,7.78
2022-08-16T23:34:16.066Z,8.15
2022-08-16T23:36:42.591Z,6.85
2022-08-16T23:39:09.182Z,6.90
2022-08-16T23:41:35.780Z,7.50
2022-08-16T23:44:02.419Z,9.48
2022-08-16T23:46:49.427Z,6.60
2022-08-16T23:49:58.438Z,13.52
2022-08-16T23:52:09.902Z,6.68
2022-08-16T23:54:36.568Z,7.55
2022-08-16T23:57:03.361Z,7.35
2022-08-16T23:59:29.932Z,7.28
